WEATHER FORECAST AL AIN AIRPORT
 
Monday, April 23, 2018 (22:46 UTC)
Al Ain International Airport
ICAO: OMAL
IATA: AAN
  • METAR OMAL 232200Z 11008KT CAVOK 30/16 Q1010 NOSIG=
  • TAF OMAL 231700Z 2318/2500 08008KT 8000 NSC BECMG 2322/2400 16010KT PROB30 TEMPO 2400/2405 16018KT 4000 BLDU BECMG 2412/2414 32008KT BECMG 2418/2420 08006KT=
AL AIN (OMAL) 5 DAY OUTLOOK:
Tuesday, 24/Apr/2018
HIGH:
40°C
LOW:
28°C
MIN. VISIBILITY:
4000 meters
WIND (DIRECTION/SPEED):
SSE at 15 - 20 knots (28 - 37 km/h) becoming N at 5 - 7 knots (9 - 13 km/h)
WEATHER:
Dusty in the morning, becoming partly cloudy.
RAINFALL:
Nil
Wednesday, 25/Apr/2018
HIGH:
40°C
LOW:
27°C
MIN. VISIBILITY:
7000 meters
WIND (DIRECTION/SPEED):
SE at 10 - 15 knots (19 - 28 km/h) becoming NW at 10 - 15 knots (19 - 28 km/h)
WEATHER:
Partly Cloudy
RAINFALL:
Nil
Thursday, 26/Apr/2018
HIGH:
39°C
LOW:
26°C
MIN. VISIBILITY:
7000 meters
WIND (DIRECTION/SPEED):
NE at 5 - 7 knots (9 - 13 km/h) becoming NW at 10 - 15 knots (19 - 28 km/h)
WEATHER:
Partly Cloudy
RAINFALL:
Nil
Friday, 27/Apr/2018
HIGH:
42°C
LOW:
27°C
MIN. VISIBILITY:
8000 meters
WIND (DIRECTION/SPEED):
E at 5 - 7 knots (9 - 13 km/h) becoming NW at 10 - 15 knots (19 - 28 km/h)
WEATHER:
Sunny
RAINFALL:
Nil
Saturday, 28/Apr/2018
HIGH:
43°C
LOW:
28°C
MIN. VISIBILITY:
8000 meters
WIND (DIRECTION/SPEED):
SSE at 10 - 15 knots (19 - 28 km/h) becoming NW at 10 - 15 knots (19 - 28 km/h)
WEATHER:
Sunny
RAINFALL:
Nil
D:\Input Parser\Destinations\Final\17\OMALL180017001669727793.txt